createdAt,value
2019-03-21T00:04:25.860Z,2.10
2019-03-21T00:07:28.956Z,1.73
2019-03-21T00:10:17.860Z,1.70
2019-03-21T00:12:56.007Z,1.90
2019-03-21T00:21:24.567Z,1.93
2019-03-21T00:24:03.993Z,1.93
2019-03-21T00:26:48.492Z,2.70
2019-03-21T00:29:25.831Z,2.53
2019-03-21T00:32:05.318Z,2.27
2019-03-21T00:37:43.332Z,2.20
2019-03-21T00:40:22.130Z,2.13
2019-03-21T00:42:52.534Z,2.30
2019-03-21T00:45:22.688Z,2.17
2019-03-21T00:47:54.265Z,2.63
2019-03-21T00:50:27.719Z,2.27
2019-03-21T00:52:58.330Z,1.97
2019-03-21T00:55:32.192Z,2.03
2019-03-21T00:58:03.569Z,2.20
2019-03-21T01:01:00.799Z,2.70
2019-03-21T01:03:29.512Z,2.10
2019-03-21T01:05:59.137Z,2.07
2019-03-21T01:08:29.342Z,2.37
2019-03-21T01:10:59.525Z,2.60
2019-03-21T01:13:35.840Z,2.13
2019-03-21T01:16:08.886Z,2.30
2019-03-21T01:18:49.143Z,2.43
2019-03-21T01:21:20.221Z,2.57
2019-03-21T01:23:53.504Z,2.40
2019-03-21T01:26:25.273Z,2.40
2019-03-21T01:31:59.367Z,2.10
2019-03-21T01:34:54.852Z,2.10
2019-03-21T01:37:05.302Z,2.23
2019-03-21T01:39:34.849Z,2.03
2019-03-21T01:42:03.586Z,2.10
2019-03-21T01:44:41.251Z,2.40
2019-03-21T01:47:09.918Z,2.00
2019-03-21T01:52:39.270Z,2.13
2019-03-21T01:55:24.701Z,2.20
2019-03-21T01:58:09.784Z,2.17
2019-03-21T02:00:52.482Z,2.50
2019-03-21T02:03:22.057Z,2.27
2019-03-21T02:05:52.460Z,2.07
2019-03-21T02:08:35.778Z,2.10
2019-03-21T02:11:22.485Z,1.87
2019-03-21T02:14:01.054Z,1.97
2019-03-21T02:16:37.553Z,2.27
2019-03-21T02:19:15.069Z,2.10
2019-03-21T02:22:08.756Z,2.00
2019-03-21T02:27:47.830Z,2.20
2019-03-21T02:30:27.328Z,2.43
2019-03-21T02:33:00.060Z,2.00
2019-03-21T02:35:31.403Z,1.97
2019-03-21T02:38:14.528Z,2.00
2019-03-21T02:40:50.314Z,2.07
2019-03-21T02:43:20.912Z,1.80
2019-03-21T02:45:54.724Z,1.93
2019-03-21T02:48:24.453Z,2.07
2019-03-21T02:50:55.343Z,2.10
2019-03-21T02:53:25.075Z,2.37
2019-03-21T02:55:53.797Z,2.30
2019-03-21T03:01:44.959Z,1.73
2019-03-21T03:04:18.528Z,1.90
2019-03-21T03:09:50.302Z,2.20
2019-03-21T03:12:24.398Z,2.10
2019-03-21T03:14:56.421Z,2.00
2019-03-21T03:17:26.778Z,2.00
2019-03-21T03:19:55.543Z,2.23
2019-03-21T03:22:27.984Z,1.90
2019-03-21T03:24:59.097Z,2.40
2019-03-21T03:27:30.049Z,2.00
2019-03-21T03:30:01.751Z,2.07
2019-03-21T03:35:53.686Z,1.90
2019-03-21T03:38:53.920Z,2.00
2019-03-21T03:41:42.509Z,2.10
2019-03-21T03:44:17.182Z,2.13
2019-03-21T03:46:57.924Z,1.90
2019-03-21T03:49:29.017Z,1.80
2019-03-21T03:51:57.574Z,2.03
2019-03-21T03:54:26.341Z,1.80
2019-03-21T03:57:02.176Z,1.80
2019-03-21T03:59:35.480Z,2.00
2019-03-21T04:02:09.081Z,2.10
2019-03-21T04:04:37.458Z,1.80
2019-03-21T04:07:16.586Z,1.83
2019-03-21T04:09:52.768Z,1.97
2019-03-21T04:12:26.668Z,2.20
2019-03-21T04:15:10.961Z,2.10
2019-03-21T04:21:00.608Z,1.90
2019-03-21T04:23:30.960Z,2.00
2019-03-21T04:26:27.085Z,1.80
2019-03-21T04:32:11.567Z,1.53
2019-03-21T04:38:03.922Z,1.73
2019-03-21T04:40:34.682Z,2.00
2019-03-21T04:43:23.801Z,1.70
2019-03-21T04:48:53.700Z,2.10
2019-03-21T04:51:24.735Z,2.00
2019-03-21T04:53:57.782Z,1.80
2019-03-21T04:56:27.280Z,2.20
2019-03-21T04:58:57.617Z,1.80
2019-03-21T05:01:29.414Z,1.87
2019-03-21T05:10:38.385Z,1.73
2019-03-21T05:13:19.477Z,1.70
2019-03-21T05:15:53.616Z,1.83
2019-03-21T05:21:24.281Z,2.00
2019-03-21T05:23:59.906Z,1.90
2019-03-21T05:26:29.490Z,1.80
2019-03-21T05:29:01.262Z,1.83
2019-03-21T05:34:34.261Z,1.70
2019-03-21T05:37:16.511Z,2.03
2019-03-21T05:40:03.665Z,1.90
2019-03-21T05:42:38.991Z,1.80
2019-03-21T05:45:18.354Z,1.50
2019-03-21T05:47:48.140Z,1.43
2019-03-21T05:50:33.686Z,1.80
2019-03-21T05:58:55.203Z,1.80
2019-03-21T06:01:26.275Z,2.07
2019-03-21T06:03:57.311Z,1.90
2019-03-21T06:06:28.921Z,1.63
2019-03-21T06:09:01.923Z,1.60
2019-03-21T06:11:33.544Z,1.50
2019-03-21T06:14:04.384Z,1.53
2019-03-21T06:16:37.776Z,1.93
2019-03-21T06:19:10.937Z,1.73
2019-03-21T06:21:45.716Z,1.50
2019-03-21T06:24:22.227Z,1.50
2019-03-21T06:27:16.057Z,1.70
2019-03-21T06:29:48.190Z,2.00
2019-03-21T06:32:19.913Z,1.60
2019-03-21T06:34:50.201Z,1.40
2019-03-21T06:37:20.336Z,1.67
2019-03-21T06:39:50.959Z,1.57
2019-03-21T06:42:20.998Z,1.60
2019-03-21T06:44:54.191Z,1.60
2019-03-21T06:47:22.867Z,1.60
2019-03-21T06:49:56.445Z,1.80
2019-03-21T06:52:29.761Z,1.70
2019-03-21T06:55:03.062Z,1.80
2019-03-21T06:57:35.959Z,1.57
2019-03-21T07:00:07.667Z,1.60
2019-03-21T07:02:38.157Z,1.83
2019-03-21T07:05:07.237Z,1.73
2019-03-21T07:10:23.231Z,1.60
2019-03-21T07:27:46.194Z,1.50
2019-03-21T07:30:16.613Z,1.60
2019-03-21T07:32:46.649Z,1.60
2019-03-21T07:41:22.713Z,1.80
2019-03-21T07:44:05.229Z,1.60
2019-03-21T07:49:39.854Z,1.67
2019-03-21T07:58:52.558Z,1.80
2019-03-21T08:07:39.330Z,1.63
2019-03-21T08:10:34.444Z,1.57
2019-03-21T08:13:08.430Z,1.67
2019-03-21T08:15:39.595Z,1.67
2019-03-21T08:18:10.096Z,2.03
2019-03-21T08:20:55.630Z,1.87
2019-03-21T08:23:16.576Z,1.90
2019-03-21T08:25:48.020Z,1.90
2019-03-21T08:28:17.884Z,1.80
2019-03-21T08:31:08.737Z,2.10
2019-03-21T08:33:37.507Z,1.90
2019-03-21T08:36:08.414Z,1.90
2019-03-21T08:38:37.186Z,1.77
2019-03-21T08:41:07.148Z,2.00
2019-03-21T08:43:38.641Z,2.07
2019-03-21T08:46:10.605Z,1.67
2019-03-21T08:48:39.365Z,1.73
2019-03-21T08:51:28.840Z,1.73
2019-03-21T08:54:04.259Z,1.80
2019-03-21T08:56:33.218Z,1.97
2019-03-21T08:59:03.577Z,1.80
2019-03-21T09:01:40.807Z,1.70
2019-03-21T09:04:13.348Z,1.90
2019-03-21T09:09:50.067Z,1.87
2019-03-21T09:12:22.776Z,1.70
2019-03-21T09:14:52.246Z,1.80
2019-03-21T09:17:25.559Z,2.00
2019-03-21T09:19:58.276Z,2.13
2019-03-21T09:22:39.815Z,1.93
2019-03-21T09:25:08.932Z,1.90
2019-03-21T09:27:49.937Z,2.10
2019-03-21T09:35:55.080Z,1.80
2019-03-21T09:38:24.835Z,1.97
2019-03-21T09:44:10.599Z,2.27
2019-03-21T09:46:50.817Z,2.40
2019-03-21T09:49:15.480Z,2.20
2019-03-21T09:51:45.876Z,2.00
2019-03-21T09:54:15.486Z,2.10
2019-03-21T09:56:46.800Z,1.83
2019-03-21T09:59:19.493Z,2.00
2019-03-21T10:01:51.269Z,2.20
2019-03-21T10:04:22.638Z,2.13
2019-03-21T10:06:54.211Z,1.70
2019-03-21T10:09:26.681Z,2.07
2019-03-21T10:11:59.800Z,2.23
2019-03-21T10:14:30.357Z,1.97
2019-03-21T10:17:00.668Z,1.90
2019-03-21T10:19:32.670Z,2.27
2019-03-21T10:22:03.450Z,1.70
2019-03-21T10:24:36.676Z,2.20
2019-03-21T10:27:11.248Z,1.80
2019-03-21T10:29:41.931Z,2.10
2019-03-21T10:32:14.450Z,2.10
2019-03-21T10:34:47.315Z,1.70
2019-03-21T10:37:18.421Z,1.87
2019-03-21T10:39:47.103Z,2.00
2019-03-21T10:42:18.437Z,2.23
2019-03-21T10:44:48.209Z,2.40
2019-03-21T10:56:49.438Z,2.17
2019-03-21T10:59:21.888Z,2.10
2019-03-21T11:14:12.169Z,1.90
2019-03-21T11:16:41.797Z,2.07
2019-03-21T11:22:40.993Z,2.10
2019-03-21T11:25:13.288Z,2.17
2019-03-21T11:27:44.002Z,1.93
2019-03-21T11:30:16.948Z,2.10
2019-03-21T11:32:50.062Z,2.00
2019-03-21T11:35:21.692Z,1.90
2019-03-21T11:37:51.776Z,2.00
2019-03-21T11:40:23.606Z,1.80
2019-03-21T11:42:53.455Z,2.03
2019-03-21T11:45:22.778Z,2.40
2019-03-21T11:47:53.172Z,2.23
2019-03-21T11:50:24.835Z,2.03
2019-03-21T11:52:53.369Z,1.80
2019-03-21T11:55:23.534Z,1.90
2019-03-21T11:57:53.862Z,2.00
2019-03-21T12:00:27.713Z,1.63
2019-03-21T12:02:58.915Z,1.80
2019-03-21T12:05:31.985Z,2.07
2019-03-21T12:08:03.240Z,2.07
2019-03-21T12:10:34.401Z,1.87
2019-03-21T12:13:03.181Z,2.10
2019-03-21T12:15:33.504Z,2.10
2019-03-21T12:18:04.409Z,1.90
2019-03-21T12:20:34.713Z,1.90
2019-03-21T12:23:07.383Z,2.00
2019-03-21T12:25:41.449Z,2.40
2019-03-21T12:28:12.953Z,2.20
2019-03-21T12:30:43.795Z,2.20
2019-03-21T12:33:15.570Z,3.00
2019-03-21T12:35:45.897Z,2.50
2019-03-21T12:41:54.312Z,3.23
2019-03-21T12:47:34.964Z,2.70
2019-03-21T12:56:18.377Z,2.63
2019-03-21T13:11:08.639Z,2.93
2019-03-21T13:26:11.370Z,2.47
2019-03-21T13:28:47.732Z,2.47
2019-03-21T13:34:30.609Z,2.77
2019-03-21T13:37:50.000Z,2.40
2019-03-21T13:47:14.765Z,2.27
2019-03-21T13:49:47.561Z,1.97
2019-03-21T13:52:20.429Z,2.20
2019-03-21T13:54:52.719Z,2.20
2019-03-21T13:57:25.081Z,2.50
2019-03-21T13:59:55.457Z,2.20
2019-03-21T14:02:26.724Z,1.97
2019-03-21T14:04:57.982Z,2.27
2019-03-21T14:23:51.324Z,2.13
2019-03-21T14:26:20.709Z,1.80
2019-03-21T14:37:54.486Z,2.00
2019-03-21T14:40:41.776Z,1.73
2019-03-21T14:43:12.159Z,2.40
2019-03-21T14:48:35.821Z,2.10
2019-03-21T14:51:09.872Z,2.07
2019-03-21T14:53:39.867Z,2.10
2019-03-21T14:56:12.919Z,1.97
2019-03-21T15:03:09.739Z,1.90
2019-03-21T15:08:46.303Z,1.73
2019-03-21T15:20:52.745Z,2.07
2019-03-21T15:23:40.147Z,1.80
2019-03-21T15:26:01.234Z,2.00
2019-03-21T15:51:56.092Z,2.10
2019-03-21T15:54:27.054Z,2.03
2019-03-21T15:56:56.742Z,1.87
2019-03-21T15:59:28.822Z,2.20
2019-03-21T16:01:59.215Z,1.67
2019-03-21T16:04:30.452Z,1.77
2019-03-21T16:07:00.680Z,1.87
2019-03-21T16:09:32.142Z,1.60
2019-03-21T16:12:05.145Z,1.60
2019-03-21T16:14:33.505Z,1.70
2019-03-21T16:17:03.601Z,1.80
2019-03-21T16:19:33.477Z,1.93
2019-03-21T16:22:04.691Z,2.10
2019-03-21T16:24:36.053Z,2.37
2019-03-21T16:27:19.785Z,1.67
2019-03-21T16:29:49.437Z,1.83
2019-03-21T16:32:21.673Z,1.80
2019-03-21T16:35:22.035Z,2.17
2019-03-21T16:38:19.286Z,1.70
2019-03-21T16:45:22.997Z,1.67
2019-03-21T16:51:07.234Z,2.00
2019-03-21T16:53:40.466Z,1.60
2019-03-21T16:56:11.742Z,1.63
2019-03-21T16:59:39.820Z,1.87
2019-03-21T17:02:28.181Z,1.63
2019-03-21T17:05:22.713Z,1.70
2019-03-21T17:10:54.451Z,1.87
2019-03-21T17:13:29.200Z,1.83
2019-03-21T17:22:16.044Z,1.70
2019-03-21T17:24:48.617Z,1.50
2019-03-21T17:27:18.321Z,1.80
2019-03-21T17:29:50.716Z,1.67
2019-03-21T17:32:20.800Z,2.20
2019-03-21T17:34:49.722Z,2.20
2019-03-21T17:37:23.001Z,1.90
2019-03-21T17:39:52.940Z,1.80
2019-03-21T17:42:26.169Z,1.80
2019-03-21T17:45:07.528Z,1.77
2019-03-21T17:47:41.749Z,1.80
2019-03-21T17:50:13.456Z,1.70
2019-03-21T17:52:43.935Z,1.63
2019-03-21T17:55:14.263Z,1.63
2019-03-21T17:57:48.269Z,1.47
2019-03-21T18:00:23.633Z,2.00
2019-03-21T18:02:52.872Z,1.63
2019-03-21T18:05:26.195Z,1.63
2019-03-21T18:07:57.292Z,1.60
2019-03-21T18:10:30.675Z,1.50
2019-03-21T18:13:01.211Z,1.67
2019-03-21T18:15:31.572Z,1.40
2019-03-21T18:18:02.657Z,1.53
2019-03-21T18:20:36.643Z,1.70
2019-03-21T18:23:06.035Z,1.53
2019-03-21T18:25:36.781Z,1.70
2019-03-21T18:28:08.958Z,1.67
2019-03-21T18:30:42.232Z,1.63
2019-03-21T18:33:19.164Z,1.80
2019-03-21T18:35:48.413Z,1.70
2019-03-21T18:38:16.821Z,1.60
2019-03-21T18:40:48.476Z,1.50
2019-03-21T18:43:17.576Z,1.53
2019-03-21T18:45:48.688Z,1.70
2019-03-21T18:48:22.262Z,1.90
2019-03-21T18:50:51.522Z,1.57
2019-03-21T18:53:33.217Z,1.63
2019-03-21T19:02:23.621Z,1.80
2019-03-21T19:05:06.234Z,1.60
2019-03-21T19:07:36.802Z,1.70
2019-03-21T19:10:11.086Z,1.30
2019-03-21T19:24:59.613Z,1.53
2019-03-21T19:27:44.853Z,1.60
2019-03-21T19:30:38.419Z,1.50
2019-03-21T19:33:20.270Z,1.30
2019-03-21T19:35:54.810Z,1.40
2019-03-21T19:38:25.062Z,1.53
2019-03-21T19:41:00.116Z,1.30
2019-03-21T19:43:38.933Z,1.67
2019-03-21T19:46:12.280Z,1.67
2019-03-21T19:48:50.275Z,1.73
2019-03-21T19:51:22.662Z,1.70
2019-03-21T19:54:00.984Z,1.60
2019-03-21T19:56:36.448Z,1.60
2019-03-21T19:59:10.969Z,1.53
2019-03-21T20:02:01.521Z,1.33
2019-03-21T20:04:39.304Z,1.70
2019-03-21T20:07:16.195Z,1.40
2019-03-21T20:09:59.997Z,1.83
2019-03-21T20:12:39.524Z,1.43
2019-03-21T20:15:12.311Z,1.30
2019-03-21T20:26:20.576Z,1.30
2019-03-21T20:28:49.358Z,1.70
2019-03-21T20:31:21.928Z,1.30
2019-03-21T20:33:58.630Z,1.40
2019-03-21T20:36:29.115Z,1.53
2019-03-21T20:38:57.644Z,1.47
2019-03-21T20:41:39.216Z,1.33
2019-03-21T20:44:15.285Z,1.30
2019-03-21T20:46:45.281Z,1.40
2019-03-21T20:49:17.178Z,1.50
2019-03-21T20:51:53.050Z,1.43
2019-03-21T20:54:34.649Z,1.50
2019-03-21T21:00:37.423Z,1.20
2019-03-21T21:03:10.213Z,1.33
2019-03-21T21:05:40.492Z,1.50
2019-03-21T21:08:11.807Z,1.40
2019-03-21T21:10:43.869Z,1.30
2019-03-21T21:13:14.972Z,1.70
2019-03-21T21:15:46.383Z,1.50
2019-03-21T21:18:15.628Z,1.23
2019-03-21T21:20:47.830Z,1.67
2019-03-21T21:23:17.761Z,1.30
2019-03-21T21:28:37.770Z,1.43
2019-03-21T21:31:08.758Z,1.80
2019-03-21T21:33:39.603Z,1.40
2019-03-21T21:36:21.598Z,1.63
2019-03-21T21:38:43.297Z,1.83
2019-03-21T21:41:33.354Z,1.30
2019-03-21T21:44:06.768Z,1.70
2019-03-21T21:46:40.990Z,1.40
2019-03-21T21:49:12.991Z,1.50
2019-03-21T21:51:44.395Z,1.60
2019-03-21T21:54:17.757Z,1.67
2019-03-21T21:56:49.553Z,1.30
2019-03-21T22:08:20.792Z,1.43
2019-03-21T22:10:56.394Z,1.63
2019-03-21T22:16:43.498Z,1.40
2019-03-21T22:19:17.685Z,1.30
2019-03-21T22:21:52.031Z,1.27
2019-03-21T22:24:23.619Z,1.50
2019-03-21T22:26:55.777Z,1.50
2019-03-21T22:29:25.627Z,1.83
2019-03-21T22:31:55.261Z,1.30
2019-03-21T22:34:26.360Z,1.50
2019-03-21T22:36:58.729Z,1.53
2019-03-21T22:39:27.728Z,1.40
2019-03-21T22:41:57.838Z,1.27
2019-03-21T22:44:30.062Z,1.40
2019-03-21T22:47:01.143Z,1.50
2019-03-21T22:49:36.227Z,1.40
2019-03-21T22:52:06.221Z,1.40
2019-03-21T22:54:36.596Z,1.40
2019-03-21T22:57:12.206Z,1.53
2019-03-21T22:59:44.711Z,1.40
2019-03-21T23:02:14.379Z,1.53
2019-03-21T23:04:46.312Z,1.47
2019-03-21T23:07:17.650Z,1.30
2019-03-21T23:09:50.633Z,1.60
2019-03-21T23:12:20.683Z,1.23
2019-03-21T23:14:53.612Z,1.40
2019-03-21T23:17:28.238Z,1.40
2019-03-21T23:20:00.428Z,1.73
2019-03-21T23:22:30.806Z,1.50
2019-03-21T23:25:01.060Z,1.40
2019-03-21T23:27:34.451Z,1.50
2019-03-21T23:30:10.993Z,1.30
2019-03-21T23:32:42.090Z,1.40
2019-03-21T23:35:13.966Z,1.47
2019-03-21T23:37:47.281Z,1.43
2019-03-21T23:40:21.456Z,1.10
2019-03-21T23:42:52.548Z,1.63
2019-03-21T23:45:22.661Z,1.30
2019-03-21T23:47:59.106Z,1.43
2019-03-21T23:50:28.811Z,1.20
2019-03-21T23:53:02.089Z,1.40
2019-03-21T23:55:31.914Z,1.50
2019-03-21T23:58:04.046Z,1.50
